createdAt,value
2022-10-28T00:01:33.825Z,100.00
2022-10-28T00:04:05.728Z,100.00
2022-10-28T00:06:37.182Z,100.00
2022-10-28T00:09:12.077Z,100.00
2022-10-28T00:11:43.920Z,100.00
2022-10-28T00:14:15.849Z,100.00
2022-10-28T00:16:47.337Z,100.00
2022-10-28T00:19:19.099Z,100.00
2022-10-28T00:21:50.592Z,100.00
2022-10-28T00:24:22.354Z,100.00
2022-10-28T00:26:53.897Z,100.00
2022-10-28T00:29:25.694Z,100.00
2022-10-28T00:31:57.508Z,100.00
2022-10-28T00:34:29.051Z,100.00
2022-10-28T00:37:00.839Z,100.00
2022-10-28T00:39:32.314Z,100.00
2022-10-28T00:42:03.912Z,100.00
2022-10-28T00:44:35.418Z,100.00
2022-10-28T00:47:07.213Z,100.00
2022-10-28T00:49:38.683Z,100.00
2022-10-28T00:52:10.661Z,100.00
2022-10-28T00:54:42.121Z,100.00
2022-10-28T00:57:13.885Z,100.00
2022-10-28T00:59:45.379Z,100.00
2022-10-28T01:02:17.273Z,100.00
2022-10-28T01:04:48.869Z,100.00
2022-10-28T01:07:20.685Z,100.00
2022-10-28T01:09:52.613Z,100.00
2022-10-28T01:12:24.399Z,100.00
2022-10-28T01:14:55.869Z,100.00
2022-10-28T01:17:27.648Z,100.00
2022-10-28T01:19:59.105Z,100.00
2022-10-28T01:25:07.432Z,100.00
2022-10-28T01:27:39.162Z,100.00
2022-10-28T01:30:11.207Z,100.00
2022-10-28T01:32:43.215Z,100.00
2022-10-28T01:35:14.668Z,100.00
2022-10-28T01:37:47.734Z,100.00
2022-10-28T01:40:19.284Z,100.00
2022-10-28T01:42:51.187Z,100.00
2022-10-28T01:45:22.669Z,100.00
2022-10-28T01:47:54.847Z,100.00
2022-10-28T01:50:26.543Z,100.00
2022-10-28T01:52:58.324Z,100.00
2022-10-28T01:55:29.790Z,100.00
2022-10-28T01:58:01.539Z,100.00
2022-10-28T02:00:33.096Z,100.00
2022-10-28T02:03:05.059Z,100.00
2022-10-28T02:05:36.524Z,100.00
2022-10-28T02:08:11.521Z,100.00
2022-10-28T02:10:43.022Z,100.00
2022-10-28T02:13:14.991Z,100.00
2022-10-28T02:15:46.458Z,100.00
2022-10-28T02:18:18.095Z,100.00
2022-10-28T02:20:49.813Z,100.00
2022-10-28T02:23:21.597Z,100.00
2022-10-28T02:25:53.073Z,100.00
2022-10-28T02:28:24.924Z,100.00
2022-10-28T02:30:58.093Z,100.00
2022-10-28T02:33:29.897Z,100.00
2022-10-28T02:36:01.404Z,100.00
2022-10-28T02:38:33.779Z,100.00
2022-10-28T02:41:05.223Z,100.00
2022-10-28T02:43:37.215Z,100.00
2022-10-28T02:46:08.677Z,100.00
2022-10-28T02:48:40.478Z,100.00
2022-10-28T02:51:11.929Z,100.00
2022-10-28T02:53:43.741Z,100.00
2022-10-28T02:56:15.221Z,100.00
2022-10-28T02:58:47.237Z,100.00
2022-10-28T03:01:18.827Z,100.00
2022-10-28T03:03:50.872Z,100.00
2022-10-28T03:06:22.385Z,100.00
2022-10-28T03:08:54.354Z,100.00
2022-10-28T03:11:25.803Z,100.00
2022-10-28T03:13:57.651Z,100.00
2022-10-28T03:16:29.160Z,100.00
2022-10-28T03:19:01.072Z,100.00
2022-10-28T03:21:32.644Z,100.00
2022-10-28T03:24:04.108Z,100.00
2022-10-28T03:26:35.577Z,100.00
2022-10-28T03:29:07.075Z,100.00
2022-10-28T03:31:38.542Z,100.00
2022-10-28T03:34:10.418Z,100.00
2022-10-28T03:36:41.878Z,100.00
2022-10-28T03:39:13.620Z,100.00
2022-10-28T03:41:45.115Z,100.00
2022-10-28T03:44:16.970Z,100.00
2022-10-28T03:46:48.422Z,100.00
2022-10-28T03:49:20.356Z,100.00
2022-10-28T03:51:51.845Z,100.00
2022-10-28T03:54:23.726Z,100.00
2022-10-28T03:56:55.488Z,100.00
2022-10-28T03:59:26.939Z,100.00
2022-10-28T04:01:58.815Z,100.00
2022-10-28T04:04:30.876Z,100.00
2022-10-28T04:07:02.769Z,100.00
2022-10-28T04:09:34.225Z,100.00
2022-10-28T04:14:42.402Z,100.00
2022-10-28T04:17:14.181Z,100.00
2022-10-28T04:19:45.636Z,100.00
2022-10-28T04:22:17.458Z,100.00
2022-10-28T04:24:48.933Z,100.00
2022-10-28T04:27:20.780Z,100.00
2022-10-28T04:29:52.232Z,100.00
2022-10-28T04:32:24.160Z,100.00
2022-10-28T04:34:55.613Z,100.00
2022-10-28T04:37:27.212Z,100.00
2022-10-28T04:39:58.669Z,100.00
2022-10-28T04:42:30.467Z,100.00
2022-10-28T04:45:01.924Z,100.00
2022-10-28T04:47:33.698Z,100.00
2022-10-28T04:50:05.150Z,100.00
2022-10-28T04:52:36.897Z,100.00
2022-10-28T04:55:08.342Z,100.00
2022-10-28T04:57:40.100Z,100.00
2022-10-28T05:00:11.568Z,100.00
2022-10-28T05:02:46.041Z,100.00
2022-10-28T05:07:54.409Z,100.00
2022-10-28T05:10:26.030Z,100.00
2022-10-28T05:12:57.884Z,100.00
2022-10-28T05:15:31.261Z,100.00
2022-10-28T05:18:03.106Z,100.00
2022-10-28T05:20:34.582Z,100.00
2022-10-28T05:23:06.414Z,100.00
2022-10-28T05:25:37.933Z,100.00
2022-10-28T05:28:09.707Z,100.00
2022-10-28T05:30:41.176Z,100.00
2022-10-28T05:33:12.965Z,100.00
2022-10-28T05:35:44.429Z,100.00
2022-10-28T05:38:16.250Z,100.00
2022-10-28T05:40:47.717Z,100.00
2022-10-28T05:43:19.220Z,100.00
2022-10-28T05:45:50.686Z,100.00
2022-10-28T05:48:22.474Z,100.00
2022-10-28T05:50:53.950Z,100.00
2022-10-28T05:53:25.737Z,100.00
2022-10-28T05:55:57.197Z,100.00
2022-10-28T05:58:29.066Z,100.00
2022-10-28T06:01:00.529Z,100.00
2022-10-28T06:03:32.350Z,100.00
2022-10-28T06:06:03.850Z,100.00
2022-10-28T06:08:35.719Z,100.00
2022-10-28T06:11:05.641Z,100.00
2022-10-28T06:13:37.439Z,100.00
2022-10-28T06:16:08.980Z,100.00
2022-10-28T06:18:40.820Z,100.00
2022-10-28T06:21:12.968Z,100.00
2022-10-28T06:23:44.448Z,100.00
2022-10-28T06:26:15.918Z,100.00
2022-10-28T06:28:47.656Z,100.00
2022-10-28T06:31:19.133Z,100.00
2022-10-28T06:33:50.974Z,100.00
2022-10-28T06:36:22.477Z,100.00
2022-10-28T06:38:54.266Z,100.00
2022-10-28T06:41:25.743Z,100.00
2022-10-28T06:43:57.645Z,100.00
2022-10-28T06:46:29.451Z,100.00
2022-10-28T06:49:05.789Z,100.00
2022-10-28T06:51:37.743Z,100.00
2022-10-28T06:54:09.350Z,100.00
2022-10-28T06:56:41.179Z,100.00
2022-10-28T06:59:12.678Z,100.00
2022-10-28T07:01:44.637Z,100.00
2022-10-28T07:04:16.251Z,100.00
2022-10-28T07:06:49.915Z,100.00
2022-10-28T07:09:23.514Z,100.00
2022-10-28T07:11:56.002Z,100.00
2022-10-28T07:14:27.994Z,100.00
2022-10-28T07:16:59.850Z,100.00
2022-10-28T07:19:31.333Z,100.00
2022-10-28T07:22:03.119Z,100.00
2022-10-28T07:24:34.618Z,100.00
2022-10-28T07:27:06.540Z,100.00
2022-10-28T07:29:37.994Z,100.00
2022-10-28T07:32:09.775Z,100.00
2022-10-28T07:34:41.246Z,100.00
2022-10-28T07:37:13.242Z,100.00
2022-10-28T07:39:44.783Z,100.00
2022-10-28T07:42:16.765Z,100.00
2022-10-28T07:44:48.238Z,100.00
2022-10-28T07:47:21.912Z,100.00
2022-10-28T07:49:54.327Z,100.00
2022-10-28T07:52:26.159Z,100.00
2022-10-28T07:54:57.666Z,100.00
2022-10-28T07:57:29.669Z,100.00
2022-10-28T08:00:01.197Z,100.00
2022-10-28T08:02:32.968Z,100.00
2022-10-28T08:05:04.534Z,100.00
2022-10-28T08:07:38.623Z,100.00
2022-10-28T08:10:10.585Z,100.00
2022-10-28T08:12:42.525Z,100.00
2022-10-28T08:15:16.038Z,100.00
2022-10-28T08:17:47.831Z,100.00
2022-10-28T08:20:19.291Z,100.00
2022-10-28T08:22:50.998Z,100.00
2022-10-28T08:25:22.651Z,100.00
2022-10-28T08:27:54.491Z,100.00
2022-10-28T08:30:25.982Z,100.00
2022-10-28T08:32:57.913Z,98.93
2022-10-28T08:35:29.397Z,97.22
2022-10-28T08:38:00.982Z,91.85
2022-10-28T08:40:32.532Z,91.76
2022-10-28T08:43:04.466Z,93.43
2022-10-28T08:45:35.957Z,92.84
2022-10-28T08:48:07.847Z,95.69
2022-10-28T08:50:39.364Z,94.54
2022-10-28T08:53:11.167Z,93.58
2022-10-28T08:55:42.668Z,93.04
2022-10-28T08:58:14.545Z,94.06
2022-10-28T09:00:46.044Z,94.57
2022-10-28T09:03:18.411Z,89.94
2022-10-28T09:05:50.551Z,87.75
2022-10-28T09:08:23.065Z,85.87
2022-10-28T09:10:54.615Z,83.16
2022-10-28T09:13:26.442Z,82.93
2022-10-28T09:15:59.040Z,81.30
2022-10-28T09:18:30.834Z,79.63
2022-10-28T09:21:02.332Z,79.49
2022-10-28T09:23:33.852Z,78.77
2022-10-28T09:26:05.350Z,76.76
2022-10-28T09:28:37.422Z,74.91
2022-10-28T09:31:08.970Z,75.46
2022-10-28T09:33:40.850Z,74.03
2022-10-28T09:36:12.350Z,74.63
2022-10-28T09:38:44.231Z,76.60
2022-10-28T09:41:15.745Z,75.20
2022-10-28T09:43:47.974Z,74.03
2022-10-28T09:46:19.502Z,73.74
2022-10-28T09:48:51.394Z,72.60
2022-10-28T09:51:22.890Z,71.49
2022-10-28T09:53:54.639Z,69.93
2022-10-28T09:56:26.204Z,71.19
2022-10-28T09:58:58.113Z,71.00
2022-10-28T10:01:29.669Z,68.76
2022-10-28T10:04:01.643Z,69.29
2022-10-28T10:06:33.465Z,70.37
2022-10-28T10:09:04.973Z,71.79
2022-10-28T10:11:36.909Z,72.27
2022-10-28T10:14:08.505Z,71.53
2022-10-28T10:16:40.399Z,70.53
2022-10-28T10:19:11.946Z,70.72
2022-10-28T10:21:43.910Z,69.76
2022-10-28T10:24:15.391Z,71.50
2022-10-28T10:26:47.219Z,68.93
2022-10-28T10:29:18.720Z,70.04
2022-10-28T10:31:50.550Z,70.62
2022-10-28T10:34:22.067Z,70.99
2022-10-28T10:36:53.961Z,69.67
2022-10-28T10:39:26.555Z,69.32
2022-10-28T10:41:58.442Z,72.52
2022-10-28T10:44:29.956Z,69.92
2022-10-28T10:47:06.024Z,68.74
2022-10-28T10:49:38.248Z,69.96
2022-10-28T10:52:10.044Z,69.70
2022-10-28T10:54:41.552Z,70.75
2022-10-28T10:57:13.361Z,70.82
2022-10-28T10:59:44.844Z,70.26
2022-10-28T11:02:16.818Z,69.87
2022-10-28T11:04:48.400Z,70.32
2022-10-28T11:07:20.384Z,70.09
2022-10-28T11:09:51.920Z,69.36
2022-10-28T11:12:23.733Z,68.41
2022-10-28T11:14:55.300Z,68.35
2022-10-28T11:17:27.316Z,67.27
2022-10-28T11:19:58.872Z,66.86
2022-10-28T11:22:30.707Z,66.69
2022-10-28T11:25:02.194Z,66.40
2022-10-28T11:27:34.133Z,67.41
2022-10-28T11:30:05.626Z,67.71
2022-10-28T11:32:44.137Z,65.95
2022-10-28T11:35:26.254Z,66.55
2022-10-28T11:37:59.024Z,65.70
2022-10-28T11:40:31.726Z,66.11
2022-10-28T11:43:03.662Z,66.27
2022-10-28T11:45:35.163Z,66.39
2022-10-28T11:48:07.090Z,66.02
2022-10-28T11:50:38.666Z,66.67
2022-10-28T11:53:10.617Z,66.03
2022-10-28T11:55:42.112Z,66.14
2022-10-28T12:00:50.498Z,64.34
2022-10-28T12:03:22.051Z,64.92
2022-10-28T12:05:53.649Z,65.44
2022-10-28T12:08:25.339Z,65.37
2022-10-28T12:10:56.834Z,65.39
2022-10-28T12:13:28.693Z,63.52
2022-10-28T12:16:00.201Z,64.33
2022-10-28T12:18:32.061Z,63.88
2022-10-28T12:21:03.644Z,64.50
2022-10-28T12:23:35.727Z,63.72
2022-10-28T12:26:07.234Z,64.58
2022-10-28T12:28:39.256Z,64.98
2022-10-28T12:31:10.756Z,65.75
2022-10-28T12:33:44.360Z,65.75
2022-10-28T12:36:18.060Z,66.51
2022-10-28T12:38:50.016Z,66.87
2022-10-28T12:41:21.520Z,68.18
2022-10-28T12:43:53.330Z,67.17
2022-10-28T12:46:25.340Z,67.15
2022-10-28T12:48:56.922Z,67.92
2022-10-28T12:51:28.751Z,68.06
2022-10-28T12:54:00.253Z,67.57
2022-10-28T12:56:31.884Z,69.16
2022-10-28T13:01:40.875Z,67.57
2022-10-28T13:04:12.879Z,68.26
2022-10-28T13:06:44.674Z,68.35
2022-10-28T13:09:16.223Z,68.65
2022-10-28T13:11:48.095Z,69.41
2022-10-28T13:14:19.593Z,68.84
2022-10-28T13:16:51.500Z,68.40
2022-10-28T13:19:22.993Z,65.91
2022-10-28T13:21:54.915Z,65.79
2022-10-28T13:24:26.391Z,65.56
2022-10-28T13:26:58.277Z,65.68
2022-10-28T13:29:29.811Z,65.82
2022-10-28T13:32:01.638Z,65.99
2022-10-28T13:34:33.297Z,66.34
2022-10-28T13:37:05.144Z,66.26
2022-10-28T13:39:36.696Z,66.04
2022-10-28T13:42:08.422Z,66.23
2022-10-28T13:44:39.915Z,66.32
2022-10-28T13:47:11.911Z,65.54
2022-10-28T13:49:43.436Z,65.33
2022-10-28T13:52:15.279Z,65.56
2022-10-28T13:54:46.781Z,66.00
2022-10-28T13:57:18.701Z,66.69
2022-10-28T13:59:50.348Z,68.92
2022-10-28T14:02:34.614Z,68.34
2022-10-28T14:05:07.372Z,69.81
2022-10-28T14:07:39.378Z,69.63
2022-10-28T14:10:11.741Z,70.33
2022-10-28T14:12:43.608Z,70.60
2022-10-28T14:15:15.109Z,70.88
2022-10-28T14:17:46.868Z,70.83
2022-10-28T14:20:18.382Z,71.54
2022-10-28T14:22:51.456Z,71.46
2022-10-28T14:25:22.984Z,70.76
2022-10-28T14:27:55.167Z,71.08
2022-10-28T14:30:26.965Z,71.38
2022-10-28T14:33:00.306Z,71.75
2022-10-28T14:35:31.842Z,72.19
2022-10-28T14:38:03.350Z,72.43
2022-10-28T14:40:36.053Z,72.84
2022-10-28T14:43:08.155Z,72.93
2022-10-28T14:45:39.635Z,72.87
2022-10-28T14:48:11.574Z,73.50
2022-10-28T14:50:43.107Z,74.31
2022-10-28T14:53:15.013Z,74.26
2022-10-28T14:55:46.512Z,75.38
2022-10-28T14:58:18.322Z,76.09
2022-10-28T15:00:49.834Z,77.13
2022-10-28T15:03:21.639Z,77.62
2022-10-28T15:05:53.488Z,78.19
2022-10-28T15:08:25.109Z,78.56
2022-10-28T15:10:57.004Z,79.55
2022-10-28T15:13:28.499Z,80.19
2022-10-28T15:16:03.715Z,80.70
2022-10-28T15:18:36.280Z,81.40
2022-10-28T15:21:08.364Z,82.28
2022-10-28T15:23:39.878Z,82.27
2022-10-28T15:26:11.719Z,83.10
2022-10-28T15:28:43.228Z,83.58
2022-10-28T15:31:15.001Z,83.92
2022-10-28T15:33:46.486Z,84.00
2022-10-28T15:36:18.668Z,85.00
2022-10-28T15:38:50.230Z,85.33
2022-10-28T15:41:22.130Z,85.93
2022-10-28T15:43:53.636Z,86.73
2022-10-28T15:46:25.696Z,87.33
2022-10-28T15:48:57.194Z,87.93
2022-10-28T15:51:29.102Z,88.29
2022-10-28T15:54:00.605Z,88.84
2022-10-28T15:56:32.495Z,89.21
2022-10-28T15:59:04.352Z,90.12
2022-10-28T16:01:38.541Z,89.89
2022-10-28T16:04:10.175Z,90.45
2022-10-28T16:06:42.126Z,91.21
2022-10-28T16:09:14.199Z,90.93
2022-10-28T16:11:45.977Z,91.60
2022-10-28T16:14:17.537Z,91.63
2022-10-28T16:16:49.388Z,91.28
2022-10-28T16:19:20.891Z,92.13
2022-10-28T16:21:52.426Z,92.81
2022-10-28T16:24:23.931Z,93.60
2022-10-28T16:26:55.772Z,94.35
2022-10-28T16:29:27.301Z,93.99
2022-10-28T16:31:59.106Z,94.54
2022-10-28T16:34:30.622Z,94.43
2022-10-28T16:37:02.445Z,94.16
2022-10-28T16:39:33.950Z,94.46
2022-10-28T16:42:05.777Z,95.02
2022-10-28T16:44:37.274Z,94.99
2022-10-28T16:47:09.031Z,94.86
2022-10-28T16:49:40.546Z,94.98
2022-10-28T16:52:12.398Z,94.75
2022-10-28T16:54:44.342Z,95.12
2022-10-28T16:57:15.968Z,95.32
2022-10-28T16:59:47.825Z,95.03
2022-10-28T17:02:19.444Z,94.75
2022-10-28T17:04:52.064Z,95.70
2022-10-28T17:07:23.568Z,95.59
2022-10-28T17:09:55.518Z,96.12
2022-10-28T17:12:27.097Z,95.91
2022-10-28T17:14:58.918Z,96.42
2022-10-28T17:17:30.435Z,96.82
2022-10-28T17:20:02.339Z,96.35
2022-10-28T17:22:33.858Z,96.63
2022-10-28T17:25:05.719Z,97.00
2022-10-28T17:27:37.220Z,97.02
2022-10-28T17:30:09.180Z,97.58
2022-10-28T17:32:40.786Z,98.09
2022-10-28T17:35:12.603Z,97.97
2022-10-28T17:37:44.114Z,98.23
2022-10-28T17:40:16.072Z,98.70
2022-10-28T17:42:47.573Z,99.10
2022-10-28T17:45:21.188Z,99.48
2022-10-28T17:47:53.693Z,99.53
2022-10-28T17:50:25.467Z,100.00
2022-10-28T17:52:57.369Z,100.00
2022-10-28T17:55:29.449Z,100.00
2022-10-28T17:58:00.986Z,100.00
2022-10-28T18:00:32.761Z,100.00
2022-10-28T18:03:06.232Z,100.00
2022-10-28T18:05:38.183Z,100.00
2022-10-28T18:08:09.705Z,100.00
2022-10-28T18:10:41.623Z,100.00
2022-10-28T18:13:13.124Z,100.00
2022-10-28T18:15:45.060Z,100.00
2022-10-28T18:18:16.570Z,100.00
2022-10-28T18:20:48.362Z,100.00
2022-10-28T18:23:19.852Z,100.00
2022-10-28T18:25:51.685Z,100.00
2022-10-28T18:28:23.496Z,100.00
2022-10-28T18:30:55.330Z,100.00
2022-10-28T18:33:26.844Z,100.00
2022-10-28T18:35:58.697Z,100.00
2022-10-28T18:38:30.869Z,100.00
2022-10-28T18:41:02.718Z,100.00
2022-10-28T18:43:34.217Z,100.00
2022-10-28T18:46:06.050Z,100.00
2022-10-28T18:48:37.613Z,100.00
2022-10-28T18:51:09.837Z,100.00
2022-10-28T18:53:41.396Z,100.00
2022-10-28T18:56:13.389Z,100.00
2022-10-28T18:58:44.921Z,100.00
2022-10-28T19:01:16.821Z,100.00
2022-10-28T19:03:48.390Z,100.00
2022-10-28T19:06:20.470Z,100.00
2022-10-28T19:08:52.313Z,100.00
2022-10-28T19:11:26.038Z,100.00
2022-10-28T19:13:58.104Z,100.00
2022-10-28T19:16:29.934Z,100.00
2022-10-28T19:19:01.483Z,100.00
2022-10-28T19:21:33.010Z,100.00
2022-10-28T19:24:05.299Z,100.00
2022-10-28T19:26:37.233Z,100.00
2022-10-28T19:29:08.751Z,100.00
2022-10-28T19:31:42.225Z,100.00
2022-10-28T19:34:15.254Z,100.00
2022-10-28T19:36:47.192Z,100.00
2022-10-28T19:39:18.694Z,100.00
2022-10-28T19:41:50.434Z,100.00
2022-10-28T19:44:21.963Z,100.00
2022-10-28T19:46:53.804Z,100.00
2022-10-28T19:49:27.791Z,100.00
2022-10-28T19:52:00.605Z,100.00
2022-10-28T19:54:32.102Z,100.00
2022-10-28T19:57:03.956Z,100.00
2022-10-28T19:59:35.545Z,100.00
2022-10-28T20:02:07.568Z,100.00
2022-10-28T20:04:40.628Z,100.00
2022-10-28T20:07:12.114Z,100.00
2022-10-28T20:09:44.155Z,100.00
2022-10-28T20:12:15.652Z,100.00
2022-10-28T20:14:47.467Z,100.00
2022-10-28T20:17:20.838Z,100.00
2022-10-28T20:19:52.889Z,100.00
2022-10-28T20:22:24.410Z,100.00
2022-10-28T20:24:56.395Z,100.00
2022-10-28T20:27:27.897Z,100.00
2022-10-28T20:30:00.048Z,100.00
2022-10-28T20:32:31.577Z,100.00
2022-10-28T20:35:03.806Z,100.00
2022-10-28T20:37:35.303Z,100.00
2022-10-28T20:40:07.663Z,100.00
2022-10-28T20:42:39.339Z,100.00
2022-10-28T20:45:10.895Z,100.00
2022-10-28T20:47:42.399Z,100.00
2022-10-28T20:50:14.199Z,100.00
2022-10-28T20:52:45.695Z,100.00
2022-10-28T20:55:17.541Z,100.00
2022-10-28T20:57:49.033Z,100.00
2022-10-28T21:00:20.962Z,100.00
2022-10-28T21:02:52.583Z,100.00
2022-10-28T21:05:25.162Z,100.00
2022-10-28T21:07:57.108Z,100.00
2022-10-28T21:10:29.213Z,100.00
2022-10-28T21:13:00.697Z,100.00
2022-10-28T21:15:32.574Z,100.00
2022-10-28T21:18:04.102Z,100.00
2022-10-28T21:20:36.012Z,100.00
2022-10-28T21:23:07.514Z,100.00
2022-10-28T21:25:40.300Z,100.00
2022-10-28T21:28:11.800Z,100.00
2022-10-28T21:30:43.765Z,100.00
2022-10-28T21:33:17.646Z,100.00
2022-10-28T21:35:49.156Z,100.00
2022-10-28T21:38:20.648Z,100.00
2022-10-28T21:40:52.500Z,100.00
2022-10-28T21:43:23.993Z,100.00
2022-10-28T21:45:55.806Z,100.00
2022-10-28T21:48:27.412Z,100.00
2022-10-28T21:50:59.360Z,100.00
2022-10-28T21:53:30.846Z,100.00
2022-10-28T21:56:02.708Z,100.00
2022-10-28T21:58:34.180Z,100.00
2022-10-28T22:01:05.947Z,100.00
2022-10-28T22:03:37.495Z,100.00
2022-10-28T22:06:09.316Z,100.00
2022-10-28T22:08:40.913Z,100.00
2022-10-28T22:11:12.836Z,100.00
2022-10-28T22:13:44.360Z,100.00
2022-10-28T22:16:16.207Z,100.00
2022-10-28T22:18:47.734Z,100.00
2022-10-28T22:21:19.543Z,100.00
2022-10-28T22:23:51.037Z,100.00
2022-10-28T22:26:23.046Z,100.00
2022-10-28T22:28:54.565Z,100.00
2022-10-28T22:31:26.359Z,100.00
2022-10-28T22:33:57.863Z,100.00
2022-10-28T22:36:29.756Z,100.00
2022-10-28T22:39:01.244Z,100.00
2022-10-28T22:41:33.412Z,100.00
2022-10-28T22:44:05.391Z,100.00
2022-10-28T22:46:37.228Z,99.96
2022-10-28T22:49:08.713Z,99.79
2022-10-28T22:51:40.586Z,99.78
2022-10-28T22:54:12.086Z,99.44
2022-10-28T22:56:46.705Z,99.31
2022-10-28T22:59:18.206Z,98.81
2022-10-28T23:01:50.166Z,99.14
2022-10-28T23:04:21.684Z,98.40
2022-10-28T23:06:53.530Z,98.39
2022-10-28T23:09:25.046Z,98.91
2022-10-28T23:11:56.886Z,99.34
2022-10-28T23:14:28.383Z,98.72
2022-10-28T23:16:59.976Z,98.58
2022-10-28T23:19:31.484Z,98.32
2022-10-28T23:22:03.450Z,98.29
2022-10-28T23:24:34.966Z,98.25
2022-10-28T23:27:06.609Z,97.95
2022-10-28T23:29:38.113Z,97.49
2022-10-28T23:32:10.111Z,96.72
2022-10-28T23:34:41.671Z,95.33
2022-10-28T23:37:13.844Z,95.66
2022-10-28T23:39:45.384Z,95.35
2022-10-28T23:42:17.211Z,95.51
2022-10-28T23:44:48.757Z,95.11
2022-10-28T23:47:20.622Z,95.54
2022-10-28T23:49:52.942Z,94.72
2022-10-28T23:52:24.782Z,94.86
2022-10-28T23:54:56.665Z,95.13
2022-10-28T23:57:28.165Z,95.16
2022-10-28T23:59:59.937Z,95.07
